createdAt,value
2022-08-26T03:09:40.184Z,99775.09
2022-08-26T03:12:47.540Z,99775.09
2022-08-26T03:15:50.423Z,99779.37
2022-08-26T03:18:52.903Z,99771.44
2022-08-26T03:21:57.932Z,99773.19
2022-08-26T03:25:00.558Z,99767.03
2022-08-26T03:28:02.889Z,99774.09
2022-08-26T03:31:05.622Z,99772.34
2022-08-26T03:34:07.762Z,99775.00
2022-08-26T03:37:10.126Z,99767.91
2022-08-26T03:40:12.482Z,99771.47
2022-08-26T03:43:16.276Z,99766.16
2022-08-26T03:46:20.469Z,99759.09
2022-08-26T03:49:23.500Z,99758.19
2022-08-26T03:52:26.211Z,99762.63
2022-08-26T03:55:33.199Z,99769.66
2022-08-26T03:58:35.714Z,99767.00
2022-08-26T04:01:38.171Z,99762.59
2022-08-26T04:04:40.566Z,99763.47
2022-08-26T04:07:42.875Z,99762.63
2022-08-26T04:10:45.987Z,99765.28
2022-08-26T04:13:48.671Z,99756.44
2022-08-26T04:16:54.008Z,99767.88
2022-08-26T04:19:57.555Z,99765.22
2022-08-26T04:22:59.961Z,99763.47
2022-08-26T04:26:02.327Z,99769.66
2022-08-26T04:29:15.883Z,99775.84
2022-08-26T04:32:18.031Z,99773.22
2022-08-26T04:35:25.841Z,99772.34
2022-08-26T04:38:28.695Z,99772.37
2022-08-26T04:41:31.760Z,99770.66
2022-08-26T04:44:35.984Z,99768.84
2022-08-26T04:47:38.437Z,99766.25
2022-08-26T04:50:40.550Z,99764.53
2022-08-26T04:53:46.027Z,99767.22
2022-08-26T04:56:49.534Z,99767.22
2022-08-26T04:59:51.926Z,99768.97
2022-08-26T05:02:53.999Z,99765.47
2022-08-26T05:05:56.986Z,99772.50
2022-08-26T05:08:59.135Z,99770.69
2022-08-26T05:12:01.491Z,99759.97
2022-08-26T05:15:05.988Z,99764.41
2022-08-26T05:18:08.794Z,99763.41
2022-08-26T05:21:20.364Z,99772.13
2022-08-26T05:24:23.387Z,99762.16
2022-08-26T05:27:25.531Z,99758.28
2022-08-26T05:30:31.396Z,99765.13
2022-08-26T05:33:33.646Z,99764.84
2022-08-26T05:36:37.202Z,99765.34
2022-08-26T05:39:41.252Z,99768.47
2022-08-26T05:42:47.548Z,99763.63
2022-08-26T05:45:50.567Z,99767.56
2022-08-26T05:48:54.096Z,99767.94
2022-08-26T05:51:56.267Z,99772.16
2022-08-26T05:55:00.012Z,99768.97
2022-08-26T05:58:02.758Z,99769.25
2022-08-26T06:01:07.681Z,99784.00
2022-08-26T06:04:12.052Z,99774.34
2022-08-26T06:07:14.388Z,99780.19
2022-08-26T06:10:33.189Z,99780.50
2022-08-26T06:13:35.534Z,99787.37
2022-08-26T06:16:41.348Z,99777.63
2022-08-26T06:19:43.711Z,99784.19
2022-08-26T06:23:09.402Z,99780.72
2022-08-26T06:26:15.607Z,99787.91
2022-08-26T06:29:24.327Z,99781.41
2022-08-26T06:32:27.255Z,99784.00
2022-08-26T06:35:29.623Z,99790.19
2022-08-26T06:38:31.759Z,99788.53
2022-08-26T06:41:35.088Z,99782.09
2022-08-26T06:44:41.111Z,99779.03
2022-08-26T06:47:43.617Z,99785.81
2022-08-26T06:50:46.894Z,99781.88
2022-08-26T06:53:54.063Z,99783.69
2022-08-26T06:56:57.416Z,99782.31
2022-08-26T06:59:59.857Z,99776.41
2022-08-26T07:03:03.065Z,99773.25
2022-08-26T07:06:05.810Z,99778.25
2022-08-26T07:09:10.219Z,99784.91
2022-08-26T07:12:12.725Z,99775.44
2022-08-26T07:15:15.855Z,99773.28
2022-08-26T07:18:18.639Z,99775.75
2022-08-26T07:21:24.890Z,99781.41
2022-08-26T07:24:28.560Z,99788.03
2022-08-26T07:27:31.299Z,99788.19
2022-08-26T07:30:34.161Z,99783.88
2022-08-26T07:33:38.592Z,99787.28
2022-08-26T07:36:41.713Z,99779.03
2022-08-26T07:39:45.127Z,99778.13
2022-08-26T07:42:48.011Z,99772.41
2022-08-26T07:45:50.897Z,99776.97
2022-08-26T07:48:53.399Z,99773.75
2022-08-26T07:51:56.741Z,99771.56
2022-08-26T07:55:01.256Z,99770.38
2022-08-26T07:58:05.479Z,99773.44
2022-08-26T08:01:08.278Z,99776.22
2022-08-26T08:04:11.220Z,99778.28
2022-08-26T08:07:16.029Z,99775.03
2022-08-26T08:10:22.395Z,99770.59
2022-08-26T08:13:27.663Z,99766.97
2022-08-26T08:16:32.299Z,99764.94
2022-08-26T08:19:39.129Z,99766.97
2022-08-26T08:22:42.498Z,99766.34
2022-08-26T08:25:45.357Z,99762.16
2022-08-26T08:28:48.209Z,99769.91
2022-08-26T08:31:56.628Z,99762.03
2022-08-26T08:35:00.271Z,99762.00
2022-08-26T08:38:04.675Z,99765.16
2022-08-26T08:41:35.695Z,99757.97
2022-08-26T08:44:41.996Z,99750.72
2022-08-26T08:47:51.779Z,99750.84
2022-08-26T08:51:18.296Z,99748.78
2022-08-26T08:54:22.056Z,99746.75
2022-08-26T08:57:53.667Z,99740.94
2022-08-26T09:01:04.542Z,99743.91
2022-08-26T09:04:33.358Z,99741.66
2022-08-26T09:07:37.683Z,99736.31
2022-08-26T09:10:49.696Z,99733.75
2022-08-26T09:13:53.941Z,99730.47
2022-08-26T09:17:09.836Z,99733.09
2022-08-26T09:20:20.560Z,99736.00
2022-08-26T09:23:23.060Z,99723.53
2022-08-26T09:26:45.526Z,99721.72
2022-08-26T09:29:50.410Z,99717.84
2022-08-26T09:32:58.891Z,99713.00
2022-08-26T09:36:16.253Z,99714.09
2022-08-26T09:39:27.481Z,99713.16
2022-08-26T09:42:29.615Z,99706.88
2022-08-26T09:45:31.999Z,99702.75
2022-08-26T09:48:37.071Z,99707.72
2022-08-26T09:51:43.035Z,99712.31
2022-08-26T09:55:01.018Z,99703.66
2022-08-26T09:58:08.941Z,99701.34
2022-08-26T10:01:25.639Z,99702.06
2022-08-26T10:04:28.180Z,99692.97
2022-08-26T10:07:47.771Z,99690.66
2022-08-26T10:10:53.232Z,99695.28
2022-08-26T10:14:02.230Z,99686.72
2022-08-26T10:17:08.222Z,99682.06
2022-08-26T10:20:23.197Z,99685.97
2022-08-26T10:23:29.822Z,99679.72
2022-08-26T10:26:44.504Z,99679.31
2022-08-26T10:29:50.816Z,99680.84
2022-08-26T10:33:01.036Z,99682.16
2022-08-26T10:36:30.137Z,99679.28
2022-08-26T10:39:36.964Z,99670.16
2022-08-26T10:43:11.092Z,99668.81
2022-08-26T10:46:20.115Z,99664.91
2022-08-26T10:49:22.970Z,99660.56
2022-08-26T10:52:46.692Z,99652.31
2022-08-26T10:55:58.983Z,99649.56
2022-08-26T10:59:34.548Z,99650.72
2022-08-26T11:02:47.193Z,99638.72
2022-08-26T11:06:29.093Z,99642.06
2022-08-26T11:09:46.577Z,99639.56
2022-08-26T11:12:50.803Z,99644.28
2022-08-26T11:15:53.076Z,99637.19
2022-08-26T11:18:56.000Z,99636.78
2022-08-26T11:22:25.040Z,99635.56
2022-08-26T11:25:30.788Z,99630.66
2022-08-26T11:28:44.133Z,99623.06
2022-08-26T11:31:49.649Z,99618.69
2022-08-26T11:34:58.342Z,99606.59
2022-08-26T11:38:05.375Z,99608.22
2022-08-26T11:41:20.806Z,99614.31
2022-08-26T11:44:26.954Z,99603.97
2022-08-26T11:47:31.914Z,99607.41
2022-08-26T11:50:34.171Z,99606.91
2022-08-26T11:53:40.116Z,99602.84
2022-08-26T11:56:44.705Z,99602.53
2022-08-26T11:59:47.507Z,99584.88
2022-08-26T12:02:51.262Z,99590.56
2022-08-26T12:05:55.204Z,99587.75
2022-08-26T12:09:05.863Z,99587.19
2022-08-26T12:12:23.680Z,99581.44
2022-08-26T12:15:30.030Z,99578.75
2022-08-26T12:18:39.628Z,99574.84
2022-08-26T12:21:42.480Z,99565.81
2022-08-26T12:24:51.070Z,99566.28
2022-08-26T12:27:54.075Z,99569.13
2022-08-26T12:31:01.938Z,99563.81
2022-08-26T12:34:18.656Z,99559.87
2022-08-26T12:37:21.278Z,99553.03
2022-08-26T12:40:26.202Z,99553.88
2022-08-26T12:43:40.885Z,99542.31
2022-08-26T12:46:46.686Z,99541.94
2022-08-26T12:50:11.241Z,99542.06
2022-08-26T12:53:25.114Z,99539.41
2022-08-26T12:56:34.168Z,99542.00
2022-08-26T12:59:36.290Z,99538.06
2022-08-26T13:02:39.746Z,99539.19
2022-08-26T13:05:41.849Z,99534.72
2022-08-26T13:08:46.622Z,99525.16
2022-08-26T13:11:48.663Z,99529.31
2022-08-26T13:14:51.013Z,99518.97
2022-08-26T13:17:53.113Z,99515.75
2022-08-26T13:20:57.743Z,99508.66
2022-08-26T13:24:09.008Z,99505.94
2022-08-26T13:27:13.985Z,99497.66
2022-08-26T13:30:16.247Z,99497.00
2022-08-26T13:33:18.726Z,99491.28
2022-08-26T13:36:22.417Z,99493.28
2022-08-26T13:39:26.109Z,99488.53
2022-08-26T13:42:28.292Z,99490.87
2022-08-26T13:45:31.610Z,99488.16
2022-08-26T13:48:34.958Z,99487.91
2022-08-26T13:51:38.974Z,99479.78
2022-08-26T13:54:41.255Z,99475.84
2022-08-26T13:57:43.689Z,99481.03
2022-08-26T14:00:45.850Z,99471.19
2022-08-26T14:03:49.490Z,99475.16
2022-08-26T14:06:51.660Z,99468.31
2022-08-26T14:09:54.404Z,99463.38
2022-08-26T14:12:56.614Z,99460.78
2022-08-26T14:16:01.357Z,99460.91
2022-08-26T14:19:05.685Z,99471.31
2022-08-26T14:22:08.308Z,99473.09
2022-08-26T14:25:14.624Z,99472.75
2022-08-26T14:28:17.434Z,99475.44
2022-08-26T14:31:19.645Z,99475.44
2022-08-26T14:34:22.017Z,99484.84
2022-08-26T14:37:24.866Z,99484.03
2022-08-26T14:40:30.880Z,99484.63
2022-08-26T14:43:33.583Z,99487.31
2022-08-26T14:46:43.659Z,99487.84
2022-08-26T14:49:45.803Z,99482.56
